createdAt,value
2023-01-27T00:02:17.815Z,100.00
2023-01-27T00:07:17.050Z,99.84
2023-01-27T00:12:38.350Z,99.77
2023-01-27T00:17:38.940Z,100.00
2023-01-27T00:22:55.054Z,100.00
2023-01-27T00:27:53.795Z,100.00
2023-01-27T00:33:11.133Z,100.00
2023-01-27T00:38:10.040Z,100.00
2023-01-27T00:43:08.932Z,100.00
2023-01-27T00:48:09.198Z,100.00
2023-01-27T00:53:08.003Z,100.00
2023-01-27T00:58:06.946Z,100.00
2023-01-27T01:03:05.974Z,100.00
2023-01-27T01:08:06.240Z,100.00
2023-01-27T01:13:05.149Z,100.00
2023-01-27T01:18:04.517Z,100.00
2023-01-27T01:23:03.267Z,100.00
2023-01-27T01:28:04.226Z,100.00
2023-01-27T01:33:03.156Z,100.00
2023-01-27T01:38:01.879Z,100.00
2023-01-27T01:43:04.053Z,100.00
2023-01-27T01:48:08.187Z,100.00
2023-01-27T01:53:08.957Z,100.00
2023-01-27T01:58:11.467Z,100.00
2023-01-27T02:03:11.861Z,100.00
2023-01-27T02:08:15.307Z,100.00
2023-01-27T02:13:17.656Z,100.00
2023-01-27T02:18:16.687Z,100.00
2023-01-27T02:23:34.093Z,100.00
2023-01-27T02:28:34.349Z,100.00
2023-01-27T02:33:33.095Z,99.87
2023-01-27T02:38:36.306Z,100.00
2023-01-27T02:43:36.744Z,100.00
2023-01-27T02:48:35.651Z,100.00
2023-01-27T02:53:35.955Z,100.00
2023-01-27T02:58:36.200Z,100.00
2023-01-27T03:03:47.365Z,100.00
2023-01-27T03:08:50.462Z,100.00
2023-01-27T03:13:50.720Z,100.00
2023-01-27T03:18:53.890Z,100.00
2023-01-27T03:23:53.111Z,100.00
2023-01-27T03:29:10.078Z,100.00
2023-01-27T03:34:12.663Z,100.00
2023-01-27T03:39:34.994Z,100.00
2023-01-27T03:44:53.612Z,100.00
2023-01-27T03:49:52.449Z,100.00
2023-01-27T03:54:51.212Z,100.00
2023-01-27T03:59:51.455Z,100.00
2023-01-27T04:05:08.696Z,100.00
2023-01-27T04:10:08.799Z,100.00
2023-01-27T04:15:10.614Z,100.00
2023-01-27T04:20:11.367Z,100.00
2023-01-27T04:25:13.036Z,100.00
2023-01-27T04:30:14.704Z,100.00
2023-01-27T04:35:13.800Z,100.00
2023-01-27T04:40:14.099Z,98.92
2023-01-27T04:45:14.724Z,99.37
2023-01-27T04:50:13.603Z,99.11
2023-01-27T04:55:13.147Z,99.01
2023-01-27T05:00:16.641Z,100.00
2023-01-27T05:05:16.521Z,100.00
2023-01-27T05:10:15.438Z,100.00
2023-01-27T05:15:16.272Z,98.35
2023-01-27T05:20:15.308Z,99.10
2023-01-27T05:25:14.529Z,100.00
2023-01-27T05:30:15.817Z,99.48
2023-01-27T05:35:15.212Z,99.10
2023-01-27T05:40:20.441Z,100.00
2023-01-27T05:45:21.058Z,100.00
2023-01-27T05:50:20.427Z,99.50
2023-01-27T05:55:19.638Z,100.00
2023-01-27T06:00:21.315Z,100.00
2023-01-27T06:05:20.224Z,100.00
2023-01-27T06:10:19.342Z,100.00
2023-01-27T06:15:18.195Z,100.00
2023-01-27T06:20:18.829Z,100.00
2023-01-27T06:25:17.732Z,100.00
2023-01-27T06:30:16.872Z,100.00
2023-01-27T06:35:15.991Z,100.00
2023-01-27T06:40:16.335Z,100.00
2023-01-27T06:45:15.406Z,100.00
2023-01-27T06:50:14.455Z,100.00
2023-01-27T06:55:15.326Z,100.00
2023-01-27T07:00:16.038Z,100.00
2023-01-27T07:05:17.985Z,100.00
2023-01-27T07:10:18.614Z,100.00
2023-01-27T07:15:17.703Z,100.00
2023-01-27T07:20:16.745Z,100.00
2023-01-27T07:25:15.626Z,100.00
2023-01-27T07:30:16.647Z,100.00
2023-01-27T07:35:15.525Z,100.00
2023-01-27T07:40:15.227Z,100.00
2023-01-27T07:45:15.891Z,100.00
2023-01-27T07:50:15.566Z,100.00
2023-01-27T07:55:14.797Z,100.00
2023-01-27T08:00:16.832Z,100.00
2023-01-27T08:05:15.824Z,100.00
2023-01-27T08:10:15.295Z,100.00
2023-01-27T08:15:50.290Z,100.00
2023-01-27T08:20:52.983Z,100.00
2023-01-27T08:25:52.654Z,100.00
2023-01-27T08:30:53.591Z,100.00
2023-01-27T08:35:52.643Z,99.88
2023-01-27T08:40:51.432Z,99.57
2023-01-27T08:45:55.694Z,100.00
2023-01-27T08:50:54.524Z,100.00
2023-01-27T08:55:57.527Z,100.00
2023-01-27T09:01:01.844Z,100.00
2023-01-27T09:06:01.254Z,99.79
2023-01-27T09:11:00.103Z,100.00
2023-01-27T09:16:01.325Z,100.00
2023-01-27T09:21:04.835Z,99.08
2023-01-27T09:26:03.690Z,99.77
2023-01-27T09:31:04.052Z,98.92
2023-01-27T09:36:06.484Z,98.54
2023-01-27T09:41:23.470Z,98.68
2023-01-27T09:46:47.295Z,98.72
2023-01-27T09:51:59.323Z,98.42
2023-01-27T09:57:06.933Z,97.49
2023-01-27T10:02:16.639Z,98.68
2023-01-27T10:07:33.152Z,98.44
2023-01-27T10:12:59.542Z,98.66
2023-01-27T10:18:09.771Z,98.40
2023-01-27T10:23:20.925Z,98.35
2023-01-27T10:28:24.002Z,98.34
2023-01-27T10:33:32.508Z,97.59
2023-01-27T10:38:40.938Z,99.05
2023-01-27T10:43:50.485Z,99.54
2023-01-27T10:48:53.114Z,97.74
2023-01-27T10:53:58.601Z,98.87
2023-01-27T10:59:04.990Z,98.23
2023-01-27T11:04:11.770Z,98.71
2023-01-27T11:09:23.820Z,97.77
2023-01-27T11:14:28.866Z,98.24
2023-01-27T11:19:41.727Z,96.56
2023-01-27T11:24:46.430Z,96.63
2023-01-27T11:29:55.154Z,96.90
2023-01-27T11:35:06.848Z,97.59
2023-01-27T11:40:15.787Z,97.28
2023-01-27T11:45:19.707Z,95.70
2023-01-27T11:50:24.866Z,95.58
2023-01-27T11:55:26.911Z,94.59
2023-01-27T12:00:27.978Z,94.89
2023-01-27T12:05:32.358Z,93.98
2023-01-27T12:10:34.378Z,94.60
2023-01-27T12:15:33.543Z,93.44
2023-01-27T12:20:38.391Z,93.68
2023-01-27T12:25:46.531Z,94.15
2023-01-27T12:30:48.333Z,93.64
2023-01-27T12:35:51.364Z,93.95
2023-01-27T12:40:56.597Z,92.04
2023-01-27T12:46:07.152Z,91.88
2023-01-27T12:51:15.257Z,91.39
2023-01-27T12:56:16.112Z,92.63
2023-01-27T13:01:37.898Z,91.43
2023-01-27T13:06:43.734Z,90.91
2023-01-27T13:11:42.731Z,90.12
2023-01-27T13:16:41.674Z,91.13
2023-01-27T13:21:42.333Z,94.25
2023-01-27T13:26:42.507Z,92.42
2023-01-27T13:31:47.282Z,90.75
2023-01-27T13:36:53.761Z,89.54
2023-01-27T13:41:57.170Z,99.24
2023-01-27T13:47:02.003Z,91.32
2023-01-27T13:52:02.906Z,89.32
2023-01-27T13:57:27.613Z,89.35
2023-01-27T14:02:45.065Z,89.84
2023-01-27T14:07:55.196Z,89.97
2023-01-27T14:13:08.691Z,92.07
2023-01-27T14:18:16.145Z,92.77
2023-01-27T14:23:35.984Z,90.35
2023-01-27T14:28:43.652Z,90.39
2023-01-27T14:34:00.184Z,90.82
2023-01-27T14:39:11.166Z,90.05
2023-01-27T14:44:19.455Z,90.66
2023-01-27T14:49:27.277Z,90.19
2023-01-27T14:54:50.947Z,92.00
2023-01-27T15:00:01.143Z,92.38
2023-01-27T15:05:12.068Z,91.35
2023-01-27T15:10:23.147Z,90.10
2023-01-27T15:16:00.316Z,90.55
2023-01-27T15:21:12.260Z,90.85
2023-01-27T15:26:15.842Z,90.30
2023-01-27T15:31:31.158Z,90.55
2023-01-27T15:36:36.092Z,100.00
2023-01-27T15:41:37.272Z,90.80
2023-01-27T15:46:38.881Z,89.55
2023-01-27T15:51:38.634Z,90.25
2023-01-27T15:56:48.273Z,91.96
2023-01-27T16:01:49.201Z,94.08
2023-01-27T16:06:52.009Z,93.77
2023-01-27T16:12:02.805Z,91.69
2023-01-27T16:17:11.269Z,90.42
2023-01-27T16:22:19.719Z,100.00
2023-01-27T16:27:32.237Z,100.00
2023-01-27T16:32:38.417Z,100.00
2023-01-27T16:37:40.480Z,100.00
2023-01-27T16:42:48.594Z,100.00
2023-01-27T16:47:53.350Z,100.00
2023-01-27T16:52:52.285Z,100.00
2023-01-27T16:57:54.392Z,100.00
2023-01-27T17:02:54.991Z,100.00
2023-01-27T17:08:14.305Z,100.00
2023-01-27T17:13:29.829Z,98.49
2023-01-27T17:18:33.145Z,98.61
2023-01-27T17:23:36.557Z,95.21
2023-01-27T17:28:37.709Z,93.75
2023-01-27T17:33:39.919Z,93.15
2023-01-27T17:38:46.891Z,92.28
2023-01-27T17:43:47.327Z,92.64
2023-01-27T17:48:52.388Z,93.34
2023-01-27T17:53:53.438Z,94.36
2023-01-27T17:58:57.596Z,94.26
2023-01-27T18:03:59.238Z,93.75
2023-01-27T18:09:01.895Z,92.10
2023-01-27T18:14:10.871Z,92.18
2023-01-27T18:19:22.335Z,92.77
2023-01-27T18:24:25.645Z,94.29
2023-01-27T18:29:32.009Z,98.21
2023-01-27T18:34:32.707Z,99.77
2023-01-27T18:39:36.930Z,100.00
2023-01-27T18:44:37.349Z,99.47
2023-01-27T18:49:37.769Z,100.00
2023-01-27T18:54:38.287Z,100.00
2023-01-27T18:59:39.946Z,100.00
2023-01-27T19:04:39.218Z,100.00
2023-01-27T19:09:39.195Z,100.00
2023-01-27T19:14:41.620Z,100.00
2023-01-27T19:19:40.582Z,100.00
2023-01-27T19:24:39.311Z,100.00
2023-01-27T19:29:39.798Z,100.00
2023-01-27T19:34:39.799Z,100.00
2023-01-27T19:39:38.770Z,100.00
2023-01-27T19:44:37.550Z,100.00
2023-01-27T19:49:37.741Z,100.00
2023-01-27T19:54:37.406Z,100.00
2023-01-27T19:59:36.998Z,100.00
2023-01-27T20:04:38.696Z,100.00
2023-01-27T20:09:37.745Z,100.00
2023-01-27T20:14:36.495Z,100.00
2023-01-27T20:19:35.293Z,100.00
2023-01-27T20:24:38.068Z,100.00
2023-01-27T20:29:37.412Z,100.00
2023-01-27T20:34:36.218Z,100.00
2023-01-27T20:39:36.558Z,100.00
2023-01-27T20:44:35.692Z,100.00
2023-01-27T20:49:36.196Z,100.00
2023-01-27T20:54:36.511Z,100.00
2023-01-27T20:59:35.262Z,100.00
2023-01-27T21:04:34.130Z,100.00
2023-01-27T21:09:33.081Z,100.00
2023-01-27T21:14:34.091Z,100.00
2023-01-27T21:19:33.286Z,100.00
2023-01-27T21:24:32.710Z,100.00
2023-01-27T21:29:32.923Z,100.00
2023-01-27T21:34:31.827Z,100.00
2023-01-27T21:39:30.520Z,100.00
2023-01-27T21:44:47.870Z,100.00
2023-01-27T21:50:04.546Z,100.00
2023-01-27T21:55:04.770Z,100.00
2023-01-27T22:00:03.734Z,100.00
2023-01-27T22:05:13.239Z,100.00
2023-01-27T22:10:16.766Z,100.00
2023-01-27T22:15:16.963Z,100.00
2023-01-27T22:20:18.085Z,100.00
2023-01-27T22:25:17.810Z,100.00
2023-01-27T22:30:19.532Z,100.00
2023-01-27T22:35:19.961Z,100.00
2023-01-27T22:40:19.236Z,100.00
2023-01-27T22:45:18.659Z,100.00
2023-01-27T22:50:19.823Z,100.00
2023-01-27T22:55:20.399Z,100.00
2023-01-27T23:00:19.474Z,100.00
2023-01-27T23:05:19.684Z,100.00
2023-01-27T23:10:19.030Z,100.00
2023-01-27T23:15:18.186Z,99.96
2023-01-27T23:20:17.167Z,99.27
2023-01-27T23:25:17.717Z,98.50
2023-01-27T23:30:16.729Z,98.42
2023-01-27T23:35:16.419Z,99.41
2023-01-27T23:40:15.614Z,99.55
2023-01-27T23:45:16.246Z,100.00
2023-01-27T23:50:15.486Z,99.66
2023-01-27T23:55:14.939Z,100.00
